EDDC Airport Information

Runway Information
Runway 04 Length 8228 ft width 167 ft
Elevation 755 ft Threshold 0 ft Heading 41
Runway 22 Length 8228 ft Width 167 ft
Elevation 703 ft Threshold 0 ft Heading 221
Airport Frequencies
Type AFIS Name MUNCHEN IN Frequency 125.8 MHZ
Type APP Name MUNCHEN RA Frequency 125.625 MHZ
Type ATIS Name ATIS Frequency 118.875 MHZ
Type GND Name GND Frequency 121.9 MHZ
Type RMP Name APRON Frequency 121.75 MHZ
Type TWR Name TWR Frequency 119.7 MHZ
Airport Navaids
Type DME Name Dresden Frequency 115400 KHZ
Type VOR-DME Name Dresden Frequency 114350 KHZ
Airport Weather Information & NOTAM
ADDS - METARS form results

(0208 UTC 23 January 2022)
Data provider http://aviationweather.gov/metar/data/
 
METAR text: EDDC 230150Z 31010KT 6000 -DZ SCT002 OVC004 04/03 Q1029
Conditions at: EDDC (DRESDEN/KLOTZSCH, DE) observed 0150 UTC 23 January 2022
Temperature: 4.0°C (39°F)
Dewpoint: 3.0°C (37°F) [RH = 93%]
Pressure (altimeter): 30.38 inches Hg (1029.0 mb)
Winds: from the NW (310 degrees) at 12 MPH (10 knots; 5.1 m/s)
Visibility: 4 miles ( 6 km)
Ceiling: 400 feet AGL
Clouds: scattered clouds at 200 feet AGL
overcast cloud deck at 400 feet AGL
Weather: -DZ  (light drizzle)

METAR text: EDDC 230120Z 31009KT 4800 -DZ BR SCT002 OVC004 04/04 Q1029
Conditions at: EDDC (DRESDEN/KLOTZSCH, DE) observed 0120 UTC 23 January 2022
Temperature: 4.0°C (39°F)
Dewpoint: 4.0°C (39°F) [RH = 100%]
Pressure (altimeter): 30.38 inches Hg (1029.0 mb)
Winds: from the NW (310 degrees) at 10 MPH (9 knots; 4.6 m/s)
Visibility: 2.98 miles (4.80 km)
Ceiling: 400 feet AGL
Clouds: scattered clouds at 200 feet AGL
overcast cloud deck at 400 feet AGL
Weather: -DZ BR  (light drizzle, mist)

Forecast for: EDDC (DRESDEN/KLOTZSCH, DE)
Text: TAF EDDC 222300Z 2300/2324 29006KT 6000 BKN006
Forecast period: 0000 UTC 23 January 2022 to 0000 UTC 24 January 2022
Forecast type: FROM: standard forecast or significant change
Winds: from the WNW (290 degrees) at 7 MPH (6 knots; 3.1 m/s)
Visibility: 4 miles (6 km)
Ceiling: 600 feet AGL
Clouds: broken clouds at 600 feet AGL
Weather: no significant weather forecast for this period
Text: TEMPO 2300/2324 2500 -DZ BR BKN003
Forecast period: 0000 UTC 23 January 2022 to 0000 UTC 24 January 2022
Forecast type: TEMPORARY: The following changes expected for less than half the time period
Visibility: 1.55 miles (2.49 km)
Ceiling: 300 feet AGL
Clouds: broken clouds at 300 feet AGL
Weather: -DZ BR  (light drizzle, mist)
Text: PROB30
Forecast period: 0000 to 1000 UTC 23 January 2022
Forecast type: TEMPORARY: The following changes expected for less than half the time period
Visibility: 0.87 miles (1.40 km)
Ceiling: 100 feet AGL
Clouds: broken clouds at 100 feet AGL
Weather: DZ  (moderate drizzle)